TimeEDT,TemperatureF,Dew PointF,Humidity,Sea Level PressureIn,VisibilityMPH,Wind Direction,Wind SpeedMPH,Gust SpeedMPH,PrecipitationIn,Events,Conditions,WindDirDegrees,DateUTC
12:54 AM,64.0,60.1,87,30.09,10.0,Calm,Calm,-,N/A,,Partly Cloudy,0,2012-09-28 04:54:00
1:54 AM,62.1,60.1,93,30.09,10.0,SSW,3.5,-,N/A,,Partly Cloudy,200,2012-09-28 05:54:00
2:54 AM,60.1,59.0,96,30.08,9.0,Calm,Calm,-,N/A,,Clear,0,2012-09-28 06:54:00
3:54 AM,59.0,59.0,100,30.07,4.0,Calm,Calm,-,N/A,,Clear,0,2012-09-28 07:54:00
4:54 AM,57.9,57.0,97,30.07,5.0,Calm,Calm,-,N/A,,Mostly Cloudy,0,2012-09-28 08:54:00
5:54 AM,59.0,57.9,96,30.07,6.0,Calm,Calm,-,N/A,,Partly Cloudy,0,2012-09-28 09:54:00
6:54 AM,59.0,57.9,96,30.08,7.0,Calm,Calm,-,N/A,,Scattered Clouds,0,2012-09-28 10:54:00
7:54 AM,61.0,59.0,93,30.08,10.0,Calm,Calm,-,N/A,,Clear,0,2012-09-28 11:54:00
8:54 AM,66.9,63.0,87,30.08,10.0,Calm,Calm,-,N/A,,Mostly Cloudy,0,2012-09-28 12:54:00
9:54 AM,73.0,61.0,66,30.08,10.0,West,3.5,-,N/A,,Mostly Cloudy,260,2012-09-28 13:54:00
10:54 AM,73.0,63.0,71,30.08,10.0,Calm,Calm,-,N/A,,Mostly Cloudy,0,2012-09-28 14:54:00
11:54 AM,75.0,61.0,62,30.07,10.0,SW,4.6,-,N/A,,Partly Cloudy,220,2012-09-28 15:54:00
12:54 PM,78.1,62.1,58,30.06,10.0,WSW,6.9,-,N/A,,Scattered Clouds,250,2012-09-28 16:54:00
1:54 PM,77.0,61.0,58,30.04,10.0,WSW,6.9,-,N/A,,Mostly Cloudy,240,2012-09-28 17:54:00
2:54 PM,75.2,60.8,61,30.03,10.0,WNW,5.8,-,N/A,,Clear,290,2012-09-28 18:54:00
3:54 PM,78.1,62.1,58,30.00,10.0,WSW,6.9,-,N/A,,Partly Cloudy,240,2012-09-28 19:54:00
4:54 PM,77.0,59.0,54,30.00,10.0,WNW,8.1,-,N/A,,Scattered Clouds,290,2012-09-28 20:54:00
5:54 PM,73.0,57.0,57,30.01,10.0,Variable,6.9,-,N/A,,Mostly Cloudy,0,2012-09-28 21:54:00
6:54 PM,71.1,57.9,63,30.00,10.0,Calm,Calm,-,N/A,,Clear,0,2012-09-28 22:54:00
7:54 PM,69.1,59.0,70,30.00,10.0,SSW,3.5,-,N/A,,Clear,210,2012-09-28 23:54:00
8:54 PM,68.0,59.0,73,30.01,10.0,Calm,Calm,-,N/A,,Scattered Clouds,0,2012-09-29 00:54:00
9:54 PM,64.9,60.1,84,30.01,10.0,Calm,Calm,-,N/A,,Overcast,0,2012-09-29 01:54:00
10:54 PM,64.9,61.0,87,30.01,10.0,Calm,Calm,-,0.00,,Overcast,0,2012-09-29 02:54:00
11:54 PM,64.9,61.0,87,30.01,10.0,South,3.5,-,N/A,,Overcast,190,2012-09-29 03:54:00